Time;durP1;ratioP1;P1;durP2;ratioP2;P2;SDS_P1;SDS_P2;PMS_P1;PMS_P2;Temp;Humidity;BMP_temperature;BMP_pressure;BME280_temperature;BME280_humidity;BME280_pressure;Samples;Min_cycle;Max_cycle;Signal;HPM_P1;HPM_P2
2023/08/21 00:01:04;;;;;;;;;;;23.30;97.30;;;22.24;91.85;100495.25;9736334;29;96950;-89
2023/08/21 00:06:08;;;;;;;;;;;23.20;97.50;;;22.18;92.13;100503.25;9760316;29;97741;-89
2023/08/21 00:11:12;;;;;;;;;;;23.10;97.50;;;22.05;93.55;100494.53;9744883;29;97028;-89
2023/08/21 00:16:16;;;;;;;;;;;23.00;98.30;;;21.98;94.64;100489.25;9745712;29;98221;-88
2023/08/21 00:21:20;;;;;;;;;;;22.90;98.70;;;21.91;94.82;100510.19;9760807;29;96894;-87
2023/08/21 00:26:24;;;;;;;;;;;22.80;98.70;;;21.85;95.71;100495.72;9759283;29;96679;-89
2023/08/21 00:31:27;;;;;;;;;;;22.70;99.00;;;21.76;96.61;100496.28;9745060;29;96710;-88
2023/08/21 00:36:30;;;;;;;;;;;22.70;99.80;;;21.74;96.36;100507.34;9746784;29;96710;-88
2023/08/21 00:41:34;;;;;;;;;;;22.60;99.60;;;21.69;97.45;100501.00;9745751;29;96914;-88
2023/08/21 00:46:37;;;;;;;;;;;22.60;99.90;;;21.59;98.22;100502.41;9736586;29;97277;-89
2023/08/21 00:51:41;;;;;;;;;;;22.50;99.90;;;21.54;98.79;100509.56;9734495;29;96816;-89
2023/08/21 00:56:46;;;;;;;;;;;22.40;99.90;;;21.48;99.83;100516.72;9742261;29;96831;-88
2023/08/21 01:01:52;;;;;;;;;;;22.40;99.90;;;21.40;100.00;100508.94;9746050;29;97481;-88
2023/08/21 01:06:57;;;;;;;;;;;22.30;99.90;;;21.40;100.00;100522.44;9745317;29;96819;-88
2023/08/21 01:12:15;;;;;;;;;;;22.30;99.90;;;21.38;100.00;100521.88;9757404;29;96800;-88
2023/08/21 01:17:20;;;;;;;;;;;22.30;99.90;;;21.28;100.00;100516.16;9735743;29;97795;-89
2023/08/21 01:22:27;;;;;;;;;;;22.20;99.90;;;21.29;100.00;100528.66;9743722;29;96970;-89
2023/08/21 01:27:31;;;;;;;;;;;22.20;99.90;;;21.27;100.00;100531.56;9753577;29;98363;-89
2023/08/21 01:32:58;;;;;;;;;;;22.20;99.90;;;21.27;100.00;100531.56;9732137;29;97791;-89
2023/08/21 01:38:03;;;;;;;;;;;22.20;99.90;;;21.27;100.00;100533.44;9741600;29;96855;-89
2023/08/21 01:43:07;;;;;;;;;;;22.20;99.90;;;21.26;100.00;100535.31;9739878;29;96743;-88
2023/08/21 01:48:10;;;;;;;;;;;22.20;99.90;;;21.26;100.00;100529.09;9757132;29;97274;-88
2023/08/21 01:53:14;;;;;;;;;;;22.20;99.90;;;21.23;100.00;100534.94;9724191;29;97775;-89
2023/08/21 01:58:17;;;;;;;;;;;22.20;99.90;;;21.25;100.00;100539.06;9739069;29;97586;-89
2023/08/21 02:03:21;;;;;;;;;;;22.20;99.90;;;21.20;100.00;100530.00;9725222;29;98920;-88
2023/08/21 02:08:30;;;;;;;;;;;22.20;99.90;;;21.10;100.00;100534.06;9746941;29;97054;-88
2023/08/21 02:13:34;;;;;;;;;;;22.10;99.90;;;21.08;100.00;100541.59;9755834;29;96717;-88
2023/08/21 02:18:37;;;;;;;;;;;22.00;99.90;;;21.01;100.00;100530.06;9739917;29;96701;-89
2023/08/21 02:23:41;;;;;;;;;;;22.00;99.90;;;20.98;100.00;100521.56;9756685;29;98265;-89
2023/08/21 02:28:44;;;;;;;;;;;22.00;99.90;;;21.04;100.00;100534.97;9739375;29;97395;-88
2023/08/21 02:33:49;;;;;;;;;;;22.00;99.90;;;21.08;100.00;100535.38;9745889;29;97132;-88
2023/08/21 02:38:53;;;;;;;;;;;22.00;99.90;;;21.04;100.00;100529.56;9734796;29;96770;-88
2023/08/21 02:43:56;;;;;;;;;;;22.10;99.90;;;21.08;100.00;100527.25;9736070;29;97655;-88
2023/08/21 02:49:00;;;;;;;;;;;22.00;99.90;;;21.04;100.00;100528.75;9733578;29;96816;-88
2023/08/21 02:54:03;;;;;;;;;;;22.00;99.90;;;21.03;100.00;100524.41;9740284;29;96730;-89
2023/08/21 02:59:07;;;;;;;;;;;22.00;99.90;;;21.01;100.00;100532.75;9746896;29;97520;-89
2023/08/21 03:04:11;;;;;;;;;;;22.00;99.90;;;20.98;100.00;100522.38;9755974;29;96815;-89
2023/08/21 03:09:14;;;;;;;;;;;22.00;99.90;;;20.94;100.00;100532.03;9738056;29;97427;-89
2023/08/21 03:14:17;;;;;;;;;;;21.90;99.90;;;20.88;100.00;100524.00;9742266;29;97555;-89
2023/08/21 03:19:21;;;;;;;;;;;21.80;99.90;;;20.82;100.00;100518.47;9748425;29;96815;-89
2023/08/21 03:24:24;;;;;;;;;;;21.80;99.90;;;20.76;100.00;100530.16;9737183;29;97937;-89
2023/08/21 03:29:28;;;;;;;;;;;21.80;99.90;;;20.71;100.00;100524.63;9760522;29;97227;-88
2023/08/21 03:34:31;;;;;;;;;;;21.70;99.90;;;20.66;100.00;100539.84;9744611;29;97069;-88
2023/08/21 03:39:35;;;;;;;;;;;21.60;99.90;;;20.63;100.00;100545.69;9751092;29;97488;-89
2023/08/21 03:44:39;;;;;;;;;;;21.60;99.90;;;20.58;100.00;100539.09;9759029;29;98439;-89
2023/08/21 03:49:43;;;;;;;;;;;21.60;99.90;;;20.56;100.00;100530.38;9739576;29;98370;-89
2023/08/21 03:54:46;;;;;;;;;;;21.60;99.90;;;20.57;100.00;100531.22;9756913;29;97140;-88
2023/08/21 03:59:50;;;;;;;;;;;21.60;99.90;;;20.56;100.00;100535.78;9742218;29;97999;-88
2023/08/21 04:04:54;;;;;;;;;;;21.50;99.90;;;20.53;100.00;100530.03;9740179;29;97401;-90
2023/08/21 04:09:58;;;;;;;;;;;21.50;99.90;;;20.49;100.00;100529.66;9758766;29;98794;-89
2023/08/21 04:15:02;;;;;;;;;;;21.50;99.90;;;20.53;100.00;100538.94;9750291;29;96755;-89
2023/08/21 04:20:06;;;;;;;;;;;21.50;99.90;;;20.62;100.00;100538.63;9739315;29;98245;-89
2023/08/21 04:25:11;;;;;;;;;;;21.60;99.90;;;20.65;100.00;100540.91;9751148;29;99164;-90
2023/08/21 04:30:14;;;;;;;;;;;21.60;99.90;;;20.78;100.00;100546.13;9751689;29;98442;-89
2023/08/21 04:35:18;;;;;;;;;;;21.80;99.90;;;20.87;100.00;100546.66;9747203;29;98336;-89
2023/08/21 04:40:23;;;;;;;;;;;21.90;99.90;;;21.01;100.00;100548.97;9749462;29;96740;-89
2023/08/21 04:45:27;;;;;;;;;;;22.00;99.90;;;21.10;100.00;100544.06;9751017;29;96786;-90
2023/08/21 04:50:30;;;;;;;;;;;22.10;99.90;;;21.21;100.00;100540.56;9746971;29;96800;-92
2023/08/21 04:55:34;;;;;;;;;;;22.20;99.90;;;21.39;100.00;100555.94;9746393;29;98063;-91
2023/08/21 05:00:38;;;;;;;;;;;22.40;99.90;;;21.53;100.00;100561.97;9736934;29;96935;-92
2023/08/21 05:05:41;;;;;;;;;;;22.50;99.90;;;21.64;100.00;100564.72;9735314;29;98965;-92
2023/08/21 05:10:45;;;;;;;;;;;22.60;99.90;;;21.74;100.00;100566.03;9740740;29;99279;-91
2023/08/21 05:15:56;;;;;;;;;;;22.70;99.90;;;21.82;100.00;100568.41;9733603;29;96673;-92
2023/08/21 05:21:00;;;;;;;;;;;22.80;99.90;;;21.94;100.00;100580.06;9749839;29;97820;-92
2023/08/21 05:26:03;;;;;;;;;;;22.90;99.90;;;22.06;100.00;100578.19;9745195;29;98536;-91
2023/08/21 05:31:06;;;;;;;;;;;23.00;99.90;;;22.21;100.00;100575.06;9751193;29;96660;-89
2023/08/21 05:36:10;;;;;;;;;;;23.10;99.90;;;22.32;100.00;100578.84;9745883;29;97239;-87
2023/08/21 05:41:14;;;;;;;;;;;23.30;99.90;;;22.53;100.00;100575.50;9740639;29;96850;-88
2023/08/21 05:46:18;;;;;;;;;;;23.40;99.90;;;22.73;100.00;100582.41;9740234;29;98444;-89
2023/08/21 05:51:22;;;;;;;;;;;23.60;99.90;;;22.88;100.00;100572.75;9752563;29;97047;-89
2023/08/21 05:56:27;;;;;;;;;;;23.90;99.90;;;23.10;100.00;100572.13;9726489;29;96807;-89
2023/08/21 06:01:30;;;;;;;;;;;24.10;99.90;;;23.36;100.00;100570.72;9731229;29;98363;-89
2023/08/21 06:06:34;;;;;;;;;;;24.30;99.90;;;23.64;100.00;100572.59;9721473;29;97301;-89
2023/08/21 06:11:38;;;;;;;;;;;24.60;99.90;;;23.86;100.00;100575.41;9735604;29;98879;-91
2023/08/21 06:16:44;;;;;;;;;;;24.80;99.90;;;24.15;100.00;100587.00;9737572;29;96800;-91
2023/08/21 06:21:48;;;;;;;;;;;25.10;99.90;;;24.41;99.90;100582.78;9717839;29;97120;-91
2023/08/21 06:26:53;;;;;;;;;;;25.40;99.90;;;24.62;98.96;100573.03;9731844;29;96851;-90
2023/08/21 06:31:56;;;;;;;;;;;25.70;99.90;;;24.89;97.28;100581.25;9751112;29;96827;-90
2023/08/21 06:37:00;;;;;;;;;;;25.90;99.90;;;25.11;96.19;100582.09;9747926;29;98408;-91
2023/08/21 06:42:04;;;;;;;;;;;26.20;99.90;;;25.35;95.73;100572.56;9746773;29;97999;-91
2023/08/21 06:47:07;;;;;;;;;;;26.40;99.90;;;25.62;93.40;100577.19;9740934;29;97113;-90
2023/08/21 06:52:11;;;;;;;;;;;26.60;99.90;;;25.86;93.17;100569.53;9730476;29;98754;-90
2023/08/21 06:57:14;;;;;;;;;;;26.90;99.90;;;26.06;92.06;100569.69;9727728;29;96795;-91
2023/08/21 07:02:17;;;;;;;;;;;27.10;99.90;;;26.30;88.02;100566.56;9719915;29;97084;-90
2023/08/21 07:07:21;;;;;;;;;;;27.40;99.90;;;26.54;84.41;100562.38;9729434;29;98744;-89
2023/08/21 07:12:25;;;;;;;;;;;27.60;99.90;;;26.74;81.23;100564.38;9752468;29;98726;-90
2023/08/21 07:17:28;;;;;;;;;;;27.80;99.90;;;26.96;79.98;100569.66;9723365;29;98874;-89
2023/08/21 07:22:31;;;;;;;;;;;28.00;99.90;;;27.16;77.97;100575.19;9757448;29;96827;-90
2023/08/21 07:27:35;;;;;;;;;;;28.20;99.90;;;27.32;75.40;100584.25;9748791;29;96772;-90
2023/08/21 07:32:38;;;;;;;;;;;28.40;99.90;;;27.47;73.74;100580.72;9736257;29;99050;-90
2023/08/21 07:37:45;;;;;;;;;;;28.50;99.90;;;27.66;71.64;100578.28;9760856;29;96719;-91
2023/08/21 07:42:49;;;;;;;;;;;28.70;99.90;;;27.86;72.48;100575.59;9750332;29;97749;-91
2023/08/21 07:47:52;;;;;;;;;;;28.90;99.90;;;27.98;70.56;100575.31;9757922;29;98636;-90
2023/08/21 07:53:15;;;;;;;;;;;29.10;98.90;;;28.18;69.33;100575.28;9766281;29;97903;-93
2023/08/21 07:58:19;;;;;;;;;;;29.30;98.60;;;28.30;66.27;100583.19;9739006;29;98387;-90
2023/08/21 08:03:22;;;;;;;;;;;29.40;98.10;;;28.40;66.18;100582.38;9752195;29;98479;-91
2023/08/21 08:08:26;;;;;;;;;;;29.50;96.60;;;28.46;65.38;100579.34;9739857;29;98355;-90
2023/08/21 08:13:30;;;;;;;;;;;29.50;97.10;;;28.54;64.58;100578.78;9733080;29;96836;-89
2023/08/21 08:18:33;;;;;;;;;;;29.60;96.20;;;28.74;64.46;100566.16;9751060;29;97666;-90
2023/08/21 08:23:37;;;;;;;;;;;29.70;96.00;;;28.90;64.28;100562.22;9747786;29;98646;-90
2023/08/21 08:28:41;;;;;;;;;;;29.90;95.50;;;29.08;61.93;100568.19;9753412;29;98448;-92
2023/08/21 08:33:45;;;;;;;;;;;30.10;94.60;;;29.19;60.77;100559.66;9748479;29;97102;-90
2023/08/21 08:38:48;;;;;;;;;;;30.20;94.40;;;29.43;61.68;100573.44;9749905;29;96750;-90
2023/08/21 08:43:54;;;;;;;;;;;30.40;94.10;;;29.61;58.90;100576.66;9750517;29;99777;-90
2023/08/21 08:48:59;;;;;;;;;;;30.50;92.80;;;29.76;61.76;100582.03;9747766;29;98754;-91
2023/08/21 08:54:03;;;;;;;;;;;30.80;93.90;;;29.94;59.30;100584.06;9742402;29;98244;-91
2023/08/21 08:59:08;;;;;;;;;;;31.00;93.40;;;30.15;58.62;100578.41;9751105;29;98457;-90
2023/08/21 09:04:13;;;;;;;;;;;31.10;92.70;;;30.29;55.96;100576.63;9756639;29;97322;-91
2023/08/21 09:09:16;;;;;;;;;;;31.30;91.20;;;30.44;55.03;100575.66;9744580;29;98700;-90
2023/08/21 09:14:28;;;;;;;;;;;31.40;91.40;;;30.56;57.23;100570.56;9751649;29;98023;-89
2023/08/21 09:19:32;;;;;;;;;;;31.50;91.60;;;30.78;57.08;100573.63;9740751;29;98478;-89
2023/08/21 09:24:37;;;;;;;;;;;31.70;91.20;;;30.83;53.96;100567.28;9748693;29;98469;-92
2023/08/21 09:29:41;;;;;;;;;;;31.90;90.50;;;30.86;52.84;100566.66;9744601;29;96824;-91
2023/08/21 09:34:45;;;;;;;;;;;31.90;89.70;;;30.95;54.01;100570.41;9747350;29;97865;-90
2023/08/21 09:39:50;;;;;;;;;;;32.00;89.50;;;31.02;54.40;100561.81;9747925;29;97942;-91
2023/08/21 09:44:53;;;;;;;;;;;32.00;88.10;;;31.06;51.10;100549.91;9758205;29;97360;-90
2023/08/21 09:49:57;;;;;;;;;;;32.10;87.10;;;31.20;51.23;100544.53;9750539;29;96626;-93
2023/08/21 09:55:03;;;;;;;;;;;32.20;86.10;;;31.34;50.33;100547.34;9731577;29;96683;-91
2023/08/21 10:00:19;;;;;;;;;;;32.40;83.80;;;31.48;50.38;100536.44;9735678;29;98633;-91
2023/08/21 10:05:23;;;;;;;;;;;32.50;84.90;;;31.56;46.69;100525.59;9729813;29;96627;-91
2023/08/21 10:10:32;;;;;;;;;;;32.60;78.60;;;31.65;43.70;100522.97;9741468;29;98497;-89
2023/08/21 10:15:37;;;;;;;;;;;32.60;74.30;;;31.66;43.82;100519.91;9748993;29;98173;-90
2023/08/21 10:20:40;;;;;;;;;;;32.60;74.00;;;31.64;43.64;100508.41;9729576;29;98386;-91
2023/08/21 10:25:44;;;;;;;;;;;32.70;75.10;;;31.86;44.79;100512.47;9730783;29;97033;-90
2023/08/21 10:30:47;;;;;;;;;;;32.90;74.50;;;32.02;45.94;100504.75;9728677;29;98930;-91
2023/08/21 10:35:51;;;;;;;;;;;33.10;75.30;;;32.20;45.30;100507.41;9738098;29;98187;-91
2023/08/21 10:41:07;;;;;;;;;;;33.20;75.70;;;32.30;44.54;100494.59;9737202;29;97027;-92
2023/08/21 10:46:11;;;;;;;;;;;33.40;73.50;;;32.46;44.09;100504.19;9730585;29;97691;-91
2023/08/21 10:51:17;;;;;;;;;;;33.50;73.40;;;32.35;43.43;100513.75;9732336;29;98492;-92
2023/08/21 10:56:20;;;;;;;;;;;33.30;72.50;;;32.37;44.52;100512.31;9755622;29;98953;-91
2023/08/21 11:01:24;;;;;;;;;;;33.40;72.60;;;32.39;43.89;100506.53;9730035;29;97531;-93
2023/08/21 11:06:27;;;;;;;;;;;33.40;72.10;;;32.48;43.72;100496.44;9737533;29;96735;-92
2023/08/21 11:11:31;;;;;;;;;;;33.50;70.80;;;32.62;44.75;100490.91;9755613;29;97495;-93
2023/08/21 11:16:34;;;;;;;;;;;33.50;71.80;;;32.84;42.61;100487.41;9750614;29;96877;-92
2023/08/21 11:21:38;;;;;;;;;;;33.80;71.20;;;32.89;43.27;100495.59;9748397;29;98463;-89
2023/08/21 11:26:42;;;;;;;;;;;33.90;70.60;;;33.03;42.97;100490.84;9743056;29;97241;-89
2023/08/21 11:31:47;;;;;;;;;;;34.00;70.70;;;33.16;42.79;100478.97;9734545;29;97462;-88
2023/08/21 11:36:52;;;;;;;;;;;34.20;70.80;;;33.19;43.46;100483.88;9761600;29;97283;-90
2023/08/21 11:41:56;;;;;;;;;;;34.20;70.00;;;33.25;42.63;100482.63;9759574;29;96817;-89
2023/08/21 11:47:03;;;;;;;;;;;34.30;68.30;;;33.44;42.56;100481.63;9750507;29;98391;-89
2023/08/21 11:52:07;;;;;;;;;;;34.50;69.50;;;33.68;41.46;100467.53;9757814;29;97639;-89
2023/08/21 11:57:15;;;;;;;;;;;34.60;67.50;;;33.85;40.53;100461.28;9735985;29;96678;-89
2023/08/21 12:02:26;;;;;;;;;;;34.80;66.70;;;33.93;39.62;100468.81;9752615;29;97491;-89
2023/08/21 12:07:30;;;;;;;;;;;34.90;65.60;;;33.90;39.84;100469.41;9744377;29;98685;-90
2023/08/21 12:12:33;;;;;;;;;;;34.80;65.60;;;34.00;40.25;100463.63;9732625;29;98688;-87
2023/08/21 12:17:37;;;;;;;;;;;34.90;66.30;;;34.02;40.16;100461.38;9739354;29;97190;-90
2023/08/21 12:22:44;;;;;;;;;;;35.00;65.40;;;33.93;39.19;100460.53;9714739;29;97524;-88
2023/08/21 12:27:47;;;;;;;;;;;35.00;65.40;;;33.84;39.38;100457.72;9725923;29;97630;-88
2023/08/21 12:33:03;;;;;;;;;;;34.90;64.00;;;33.98;40.75;100443.84;9730398;29;98350;-92
2023/08/21 12:38:28;;;;;;;;;;;35.00;65.40;;;34.05;38.58;100449.72;9734194;29;98718;-89
2023/08/21 12:43:33;;;;;;;;;;;35.20;64.40;;;34.13;38.70;100446.19;9745649;29;100428;-90
2023/08/21 12:48:36;;;;;;;;;;;35.30;64.10;;;34.36;39.48;100438.59;9734115;29;97370;-89
2023/08/21 12:53:40;;;;;;;;;;;35.40;63.70;;;34.52;37.33;100434.28;9725687;29;97230;-89
2023/08/21 12:58:43;;;;;;;;;;;35.60;63.00;;;34.66;37.59;100431.38;9742980;29;96778;-90
2023/08/21 13:03:47;;;;;;;;;;;35.70;61.80;;;34.65;35.42;100428.94;9720627;29;97806;-88
2023/08/21 13:08:51;;;;;;;;;;;35.80;61.60;;;34.48;36.22;100429.72;9726750;29;98421;-89
2023/08/21 13:13:54;;;;;;;;;;;35.60;60.90;;;34.35;37.26;100426.75;9720378;29;96808;-89
2023/08/21 13:18:58;;;;;;;;;;;35.50;60.90;;;34.34;37.67;100414.09;9716809;29;98677;-88
2023/08/21 13:24:01;;;;;;;;;;;35.50;61.30;;;34.41;37.63;100415.56;9738902;29;98328;-88
2023/08/21 13:29:07;;;;;;;;;;;35.70;61.00;;;34.70;38.04;100415.78;9734666;29;99434;-88
2023/08/21 13:34:11;;;;;;;;;;;36.20;60.40;;;35.01;37.96;100401.03;9747230;29;97569;-88
2023/08/21 13:39:15;;;;;;;;;;;36.60;60.70;;;35.39;37.16;100399.19;9744427;29;98908;-88
2023/08/21 13:44:19;;;;;;;;;;;36.80;59.20;;;35.65;36.62;100401.06;9735129;29;98588;-89
2023/08/21 13:49:23;;;;;;;;;;;36.90;60.00;;;35.47;35.88;100402.28;9717993;29;98559;-87
2023/08/21 13:54:27;;;;;;;;;;;36.70;59.60;;;35.29;37.13;100394.00;9750519;29;98042;-88
2023/08/21 13:59:31;;;;;;;;;;;36.40;60.10;;;35.12;37.42;100389.31;9725380;29;98795;-89
2023/08/21 14:04:34;;;;;;;;;;;36.20;60.10;;;34.92;37.54;100395.50;9727945;29;96774;-88
2023/08/21 14:09:38;;;;;;;;;;;36.00;59.90;;;34.76;37.13;100399.88;9762217;29;97981;-89
2023/08/21 14:14:42;;;;;;;;;;;36.00;59.60;;;34.65;38.24;100387.53;9754470;29;98764;-89
2023/08/21 14:19:46;;;;;;;;;;;36.10;59.70;;;34.81;37.76;100392.25;9763006;29;97673;-90
2023/08/21 14:24:50;;;;;;;;;;;36.60;59.10;;;35.09;37.65;100378.13;9754516;29;98554;-89
2023/08/21 14:29:54;;;;;;;;;;;37.00;58.60;;;35.31;36.85;100368.78;9767020;29;97580;-89
2023/08/21 14:34:57;;;;;;;;;;;37.30;58.40;;;35.72;35.56;100368.19;9729673;29;97457;-90
2023/08/21 14:40:06;;;;;;;;;;;37.80;58.10;;;36.41;34.94;100364.25;9748090;29;97213;-89
2023/08/21 14:45:10;;;;;;;;;;;38.50;57.80;;;36.97;34.63;100365.56;9740242;29;97022;-90
2023/08/21 14:50:13;;;;;;;;;;;39.10;57.60;;;37.68;35.05;100363.63;9745833;29;96727;-90
2023/08/21 14:55:16;;;;;;;;;;;39.70;56.70;;;38.20;31.76;100351.81;9739326;29;97665;-90
2023/08/21 15:00:21;;;;;;;;;;;40.20;56.10;;;38.14;30.45;100358.75;9752454;29;96804;-89
2023/08/21 15:05:24;;;;;;;;;;;40.30;54.50;;;38.39;32.28;100357.59;9737927;29;99681;-90
2023/08/21 15:10:28;;;;;;;;;;;40.30;53.40;;;38.38;31.13;100349.59;9756118;29;97016;-90
2023/08/21 15:15:32;;;;;;;;;;;40.30;53.50;;;38.36;30.92;100346.38;9766336;29;96699;-90
2023/08/21 15:20:35;;;;;;;;;;;40.20;52.70;;;38.56;32.30;100350.91;9746529;29;97983;-90
2023/08/21 15:25:39;;;;;;;;;;;40.30;53.80;;;38.57;29.93;100355.34;9754759;29;96700;-90
2023/08/21 15:30:44;;;;;;;;;;;40.40;53.40;;;38.78;32.27;100344.03;9764313;29;97697;-88
2023/08/21 15:35:47;;;;;;;;;;;40.50;53.90;;;38.97;32.03;100346.94;9731979;29;97890;-88
2023/08/21 15:40:51;;;;;;;;;;;40.70;53.80;;;39.00;30.30;100343.47;9753172;29;96765;-89
2023/08/21 15:45:54;;;;;;;;;;;40.80;51.70;;;39.11;31.05;100329.88;9777914;29;96898;-90
2023/08/21 15:50:58;;;;;;;;;;;40.70;52.40;;;39.13;31.16;100330.31;9773066;29;99169;-89
2023/08/21 15:56:03;;;;;;;;;;;40.70;53.40;;;38.98;30.63;100331.09;9735087;29;96555;-89
2023/08/21 16:01:06;;;;;;;;;;;40.50;53.50;;;38.99;32.70;100322.41;9741672;29;98826;-90
2023/08/21 16:06:10;;;;;;;;;;;40.50;54.40;;;38.96;32.07;100328.66;9759318;29;96788;-90
2023/08/21 16:11:14;;;;;;;;;;;40.40;54.20;;;38.85;31.69;100324.78;9758173;29;98392;-87
2023/08/21 16:16:18;;;;;;;;;;;40.30;54.00;;;38.73;31.00;100320.09;9736453;29;96719;-88
2023/08/21 16:21:26;;;;;;;;;;;40.10;53.70;;;38.60;33.17;100314.94;9732057;29;97014;-88
2023/08/21 16:26:29;;;;;;;;;;;40.00;54.50;;;38.41;30.75;100316.41;9741199;29;98083;-89
2023/08/21 16:31:33;;;;;;;;;;;39.70;53.70;;;37.97;33.70;100324.59;9751745;29;98844;-89
2023/08/21 16:36:38;;;;;;;;;;;39.30;54.40;;;37.22;38.48;100321.28;9730636;29;97016;-89
2023/08/21 16:41:49;;;;;;;;;;;38.80;57.00;;;36.62;39.92;100331.00;9752001;29;98573;-91
2023/08/21 16:46:52;;;;;;;;;;;38.20;59.30;;;35.79;41.63;100332.53;9739791;29;98741;-90
2023/08/21 16:51:56;;;;;;;;;;;37.30;59.50;;;34.91;43.22;100340.59;9751364;29;96931;-89
2023/08/21 16:56:59;;;;;;;;;;;36.40;60.10;;;34.00;45.48;100345.91;9736845;29;96778;-87
2023/08/21 17:02:03;;;;;;;;;;;35.40;61.40;;;33.17;47.86;100342.13;9740971;29;97263;-89
2023/08/21 17:07:06;;;;;;;;;;;34.50;63.20;;;32.44;49.08;100344.97;9722492;29;97365;-89
2023/08/21 17:12:11;;;;;;;;;;;33.70;65.10;;;31.77;49.86;100346.66;9743139;29;97663;-90
2023/08/21 17:17:14;;;;;;;;;;;32.90;65.10;;;31.14;51.26;100335.16;9751492;29;96811;-90
2023/08/21 17:22:19;;;;;;;;;;;32.30;66.40;;;30.68;52.51;100342.50;9737569;29;99167;-88
2023/08/21 17:27:23;;;;;;;;;;;31.80;67.40;;;30.30;55.01;100350.75;9752259;29;97201;-88
2023/08/21 17:32:27;;;;;;;;;;;31.30;70.60;;;29.92;55.59;100350.63;9733851;29;97129;-88
2023/08/21 17:37:30;;;;;;;;;;;30.80;72.00;;;29.55;56.26;100360.38;9734983;29;96799;-88
2023/08/21 17:42:35;;;;;;;;;;;30.40;72.50;;;29.23;56.93;100358.22;9746754;29;98946;-88
2023/08/21 17:47:39;;;;;;;;;;;30.00;72.30;;;28.96;59.76;100361.44;9731180;29;98367;-88
2023/08/21 17:52:43;;;;;;;;;;;29.70;75.60;;;28.76;61.17;100356.13;9731401;29;96728;-89
2023/08/21 17:57:47;;;;;;;;;;;29.50;75.80;;;28.53;62.83;100361.19;9742925;29;98630;-89
2023/08/21 18:02:50;;;;;;;;;;;29.30;76.20;;;28.38;64.12;100380.41;9751101;29;98711;-89
2023/08/21 18:07:54;;;;;;;;;;;29.10;79.00;;;28.14;63.96;100372.03;9745761;29;98331;-89
2023/08/21 18:12:58;;;;;;;;;;;28.90;78.30;;;28.04;64.30;100384.91;9744415;29;96795;-89
2023/08/21 18:18:04;;;;;;;;;;;28.70;78.20;;;27.83;66.51;100381.44;9722991;29;98825;-87
2023/08/21 18:23:08;;;;;;;;;;;28.50;80.90;;;27.54;67.24;100375.75;9750269;29;96746;-88
2023/08/21 18:28:11;;;;;;;;;;;28.30;81.70;;;27.46;67.79;100388.03;9765282;29;97211;-88
2023/08/21 18:33:15;;;;;;;;;;;28.20;82.10;;;27.38;67.60;100396.78;9768428;29;96812;-88
2023/08/21 18:38:22;;;;;;;;;;;28.10;82.00;;;27.19;67.05;100394.63;9752811;29;97280;-88
2023/08/21 18:43:26;;;;;;;;;;;28.00;82.20;;;27.13;67.45;100409.34;9768136;29;96735;-89
2023/08/21 18:48:30;;;;;;;;;;;27.90;83.00;;;27.03;68.04;100411.22;9743546;29;99433;-89
2023/08/21 18:53:34;;;;;;;;;;;27.70;83.30;;;26.88;67.93;100409.31;9728630;29;98848;-88
2023/08/21 18:58:38;;;;;;;;;;;27.60;83.80;;;26.72;67.26;100405.72;9730104;29;97463;-88
2023/08/21 19:03:41;;;;;;;;;;;27.50;82.80;;;26.68;65.63;100404.63;9732585;29;97586;-90
2023/08/21 19:08:46;;;;;;;;;;;27.40;82.00;;;26.65;64.77;100413.34;9731079;29;98153;-91
2023/08/21 19:13:49;;;;;;;;;;;27.40;81.10;;;26.57;65.11;100413.84;9754179;29;98149;-91
2023/08/21 19:18:52;;;;;;;;;;;27.40;82.00;;;26.45;65.24;100422.28;9738489;29;99479;-91
2023/08/21 19:23:56;;;;;;;;;;;27.20;81.90;;;26.33;66.12;100425.22;9747422;29;97419;-91
2023/08/21 19:28:59;;;;;;;;;;;27.10;83.00;;;26.24;65.92;100420.53;9716030;29;99347;-91
2023/08/21 19:34:03;;;;;;;;;;;27.00;83.30;;;26.12;65.88;100423.47;9723033;29;96776;-91
2023/08/21 19:39:06;;;;;;;;;;;26.90;83.10;;;26.03;65.88;100408.72;9746415;29;96725;-91
2023/08/21 19:44:10;;;;;;;;;;;26.80;82.90;;;26.04;66.59;100424.00;9744002;29;96937;-91
2023/08/21 19:49:14;;;;;;;;;;;26.80;82.50;;;26.01;67.25;100432.66;9744514;29;97369;-90
2023/08/21 19:54:18;;;;;;;;;;;26.80;82.10;;;25.89;68.47;100436.41;9745980;29;98405;-90
2023/08/21 19:59:22;;;;;;;;;;;26.70;83.30;;;25.77;69.15;100438.53;9733576;29;99565;-89
2023/08/21 20:04:25;;;;;;;;;;;26.60;83.30;;;25.63;70.56;100426.44;9734668;29;97378;-90
2023/08/21 20:09:29;;;;;;;;;;;26.50;84.30;;;25.52;70.00;100446.47;9742230;29;98775;-91
2023/08/21 20:14:33;;;;;;;;;;;26.40;84.20;;;25.33;69.93;100440.63;9746611;29;97513;-90
2023/08/21 20:19:37;;;;;;;;;;;26.20;84.70;;;25.25;69.66;100447.38;9724260;29;97317;-90
2023/08/21 20:24:41;;;;;;;;;;;26.10;84.10;;;25.13;70.26;100443.16;9737783;29;98634;-91
2023/08/21 20:29:44;;;;;;;;;;;26.10;84.30;;;25.07;71.59;100439.59;9749413;29;98262;-90
2023/08/21 20:34:49;;;;;;;;;;;26.00;85.40;;;24.93;74.00;100447.28;9742282;29;97565;-93
2023/08/21 20:39:53;;;;;;;;;;;25.80;87.40;;;24.75;73.59;100440.31;9736434;29;97209;-91
2023/08/21 20:44:59;;;;;;;;;;;25.60;86.80;;;24.60;73.81;100428.47;9740846;29;97792;-93
2023/08/21 20:50:03;;;;;;;;;;;25.50;87.50;;;24.51;74.51;100450.63;9737273;29;99367;-93
2023/08/21 20:55:08;;;;;;;;;;;25.40;88.20;;;24.35;75.85;100465.13;9744944;29;96790;-93
2023/08/21 21:00:11;;;;;;;;;;;25.20;89.00;;;24.16;76.01;100440.13;9756066;29;98673;-90
2023/08/21 21:05:16;;;;;;;;;;;25.00;89.60;;;24.09;76.42;100444.91;9748463;29;97986;-91
2023/08/21 21:10:20;;;;;;;;;;;24.90;90.40;;;24.03;75.66;100454.88;9745308;29;99033;-90
2023/08/21 21:15:23;;;;;;;;;;;24.90;90.40;;;24.13;74.27;100462.34;9750738;29;97564;-91
2023/08/21 21:20:27;;;;;;;;;;;25.00;90.10;;;24.19;74.96;100458.63;9733689;29;97411;-91
2023/08/21 21:25:31;;;;;;;;;;;25.00;89.70;;;24.13;75.89;100446.06;9753201;29;98434;-92
2023/08/21 21:30:34;;;;;;;;;;;25.10;90.10;;;24.09;76.83;100453.06;9727852;29;97185;-91
2023/08/21 21:35:38;;;;;;;;;;;24.90;90.40;;;24.01;76.82;100454.31;9745205;29;96759;-92
2023/08/21 21:40:42;;;;;;;;;;;24.80;90.50;;;23.89;77.45;100447.38;9760179;29;96754;-91
2023/08/21 21:45:45;;;;;;;;;;;24.70;91.30;;;23.74;77.60;100458.78;9752932;29;99545;-90
2023/08/21 21:50:49;;;;;;;;;;;24.50;90.80;;;23.66;78.32;100462.75;9769011;29;96742;-91
2023/08/21 21:55:54;;;;;;;;;;;24.50;91.20;;;23.55;79.06;100460.09;9768043;29;98029;-91
2023/08/21 22:00:58;;;;;;;;;;;24.40;91.70;;;23.45;79.77;100468.88;9748363;29;98461;-91
2023/08/21 22:06:01;;;;;;;;;;;24.30;91.90;;;23.39;79.99;100469.88;9748351;29;96926;-90
2023/08/21 22:11:05;;;;;;;;;;;24.20;92.10;;;23.31;80.80;100464.84;9746389;29;96810;-91
2023/08/21 22:16:08;;;;;;;;;;;24.20;92.60;;;23.18;82.04;100457.88;9736087;29;96750;-91
2023/08/21 22:21:12;;;;;;;;;;;24.00;92.70;;;23.08;83.13;100458.50;9758983;29;97429;-91
2023/08/21 22:26:15;;;;;;;;;;;23.90;92.80;;;23.04;83.31;100465.50;9729581;29;98387;-90
2023/08/21 22:31:19;;;;;;;;;;;23.90;92.90;;;22.97;83.47;100464.81;9730406;29;97374;-90
2023/08/21 22:36:38;;;;;;;;;;;23.80;93.10;;;22.88;85.08;100464.38;9732278;29;97494;-91
2023/08/21 22:41:43;;;;;;;;;;;23.70;93.70;;;22.79;86.29;100465.81;9739333;29;98600;-91
2023/08/21 22:46:48;;;;;;;;;;;23.60;93.80;;;22.67;86.90;100457.72;9741071;29;96828;-91
2023/08/21 22:51:52;;;;;;;;;;;23.60;94.40;;;22.67;86.46;100470.44;9752992;29;97601;-90
2023/08/21 22:56:56;;;;;;;;;;;23.50;94.00;;;22.59;86.90;100455.38;9741639;29;96733;-91